Time;durP1;ratioP1;P1;durP2;ratioP2;P2;SDS_P1;SDS_P2;PMS_P1;PMS_P2;Temp;Humidity;BMP_temperature;BMP_pressure;BME280_temperature;BME280_humidity;BME280_pressure;Samples;Min_cycle;Max_cycle;Signal;HPM_P1;HPM_P2
2023/05/03 00:02:10;;;;;;;6.70;4.90;;;;;;;;;;5064682;28;20206;-93
2023/05/03 00:04:39;;;;;;;8.80;5.33;;;;;;;;;;5069226;28;20253;-93
2023/05/03 00:07:06;;;;;;;8.10;5.13;;;;;;;;;;5067003;28;20210;-93
2023/05/03 00:09:34;;;;;;;7.00;4.70;;;;;;;;;;5063224;28;20261;-93
2023/05/03 00:12:01;;;;;;;7.23;5.10;;;;;;;;;;5065597;28;20211;-93
2023/05/03 00:14:30;;;;;;;5.37;4.87;;;;;;;;;;5069249;28;20211;-94
2023/05/03 00:16:57;;;;;;;7.43;5.10;;;;;;;;;;5066269;28;20233;-93
2023/05/03 00:19:25;;;;;;;6.07;5.30;;;;;;;;;;5065189;28;20207;-93
2023/05/03 00:21:53;;;;;;;7.27;5.20;;;;;;;;;;5068981;28;20210;-93
2023/05/03 00:24:20;;;;;;;6.83;5.43;;;;;;;;;;5060905;28;20211;-93
2023/05/03 00:26:47;;;;;;;6.27;4.77;;;;;;;;;;5066640;28;20267;-93
2023/05/03 00:29:14;;;;;;;9.13;5.50;;;;;;;;;;5071166;28;20270;-93
2023/05/03 00:31:43;;;;;;;6.03;5.27;;;;;;;;;;5068483;28;20206;-93
2023/05/03 00:34:11;;;;;;;7.33;4.87;;;;;;;;;;5062033;28;20297;-93
2023/05/03 00:36:38;;;;;;;8.97;4.93;;;;;;;;;;5061674;28;20203;-93
2023/05/03 00:39:05;;;;;;;8.53;5.20;;;;;;;;;;5070306;28;20261;-93
2023/05/03 00:41:32;;;;;;;5.30;4.80;;;;;;;;;;5070559;28;20227;-93
2023/05/03 00:43:59;;;;;;;8.60;4.90;;;;;;;;;;5069794;28;20210;-94
2023/05/03 00:46:27;;;;;;;6.63;5.03;;;;;;;;;;5069439;28;20250;-93
2023/05/03 00:48:56;;;;;;;9.57;5.37;;;;;;;;;;5066412;28;20294;-93
2023/05/03 00:51:23;;;;;;;6.50;5.00;;;;;;;;;;5066004;28;20278;-93
2023/05/03 00:53:50;;;;;;;8.53;4.93;;;;;;;;;;5067961;28;20285;-93
2023/05/03 00:56:21;;;;;;;8.27;5.03;;;;;;;;;;5067145;28;20281;-93
2023/05/03 00:58:49;;;;;;;9.03;4.80;;;;;;;;;;5068034;28;20261;-92
2023/05/03 01:01:16;;;;;;;7.43;4.70;;;;;;;;;;5063926;28;20209;-93
2023/05/03 01:03:45;;;;;;;9.77;5.43;;;;;;;;;;5067977;28;20203;-93
2023/05/03 01:06:18;;;;;;;7.17;4.80;;;;;;;;;;5064119;28;20211;-94
2023/05/03 01:08:48;;;;;;;5.77;5.10;;;;;;;;;;5063297;28;20202;-93
2023/05/03 01:11:18;;;;;;;6.70;5.00;;;;;;;;;;5062584;28;20285;-93
2023/05/03 01:13:51;;;;;;;5.73;4.60;;;;;;;;;;5071443;28;20206;-93
2023/05/03 01:16:21;;;;;;;6.90;5.00;;;;;;;;;;5066930;28;20276;-93
2023/05/03 01:18:49;;;;;;;8.17;5.07;;;;;;;;;;5070553;28;20223;-93
2023/05/03 01:21:19;;;;;;;6.53;4.70;;;;;;;;;;5065479;28;20333;-93
2023/05/03 01:23:55;;;;;;;5.23;4.70;;;;;;;;;;5072115;28;20252;-92
2023/05/03 01:26:25;;;;;;;7.43;4.93;;;;;;;;;;5070315;28;20222;-92
2023/05/03 01:28:52;;;;;;;6.77;4.97;;;;;;;;;;5072474;28;20279;-93
2023/05/03 01:31:23;;;;;;;7.00;5.07;;;;;;;;;;5074354;28;20236;-93
2023/05/03 01:33:56;;;;;;;8.03;4.97;;;;;;;;;;5065216;28;20207;-92
2023/05/03 01:36:27;;;;;;;5.83;4.53;;;;;;;;;;5070516;28;20202;-93
2023/05/03 01:38:55;;;;;;;7.50;5.50;;;;;;;;;;5066590;28;20230;-93
2023/05/03 01:41:25;;;;;;;7.80;5.10;;;;;;;;;;5063702;28;20294;-93
2023/05/03 01:43:53;;;;;;;8.00;5.00;;;;;;;;;;5063978;28;20249;-93
2023/05/03 01:46:20;;;;;;;6.60;4.93;;;;;;;;;;5064707;28;20213;-93
2023/05/03 01:48:48;;;;;;;6.37;5.07;;;;;;;;;;5069973;28;20207;-93
2023/05/03 01:51:15;;;;;;;5.97;5.07;;;;;;;;;;5071980;28;20257;-93
2023/05/03 01:53:42;;;;;;;7.97;5.10;;;;;;;;;;5067080;28;20226;-93
2023/05/03 01:56:09;;;;;;;5.97;4.93;;;;;;;;;;5065457;28;20226;-93
2023/05/03 01:58:38;;;;;;;6.87;5.00;;;;;;;;;;5066416;28;20302;-93
2023/05/03 02:01:06;;;;;;;5.63;4.70;;;;;;;;;;5070599;28;20202;-94
2023/05/03 02:03:34;;;;;;;6.70;5.13;;;;;;;;;;5069694;28;20211;-93
2023/05/03 02:06:01;;;;;;;10.33;5.70;;;;;;;;;;5071012;28;20317;-93
2023/05/03 02:08:28;;;;;;;8.40;5.30;;;;;;;;;;5070654;28;20211;-93
2023/05/03 02:10:55;;;;;;;6.03;4.67;;;;;;;;;;5068142;28;20226;-93
2023/05/03 02:13:23;;;;;;;8.67;5.70;;;;;;;;;;5064752;28;20267;-93
2023/05/03 02:15:51;;;;;;;7.97;4.87;;;;;;;;;;5069048;28;20306;-93
2023/05/03 02:18:19;;;;;;;6.40;5.50;;;;;;;;;;5071395;28;20244;-93
2023/05/03 02:20:46;;;;;;;8.27;5.10;;;;;;;;;;5071062;28;20234;-93
2023/05/03 02:23:14;;;;;;;7.53;5.07;;;;;;;;;;5071670;28;20226;-93
2023/05/03 02:25:41;;;;;;;5.93;5.30;;;;;;;;;;5070935;28;20238;-93
2023/05/03 02:28:08;;;;;;;5.77;4.47;;;;;;;;;;5070050;28;20223;-93
2023/05/03 02:30:36;;;;;;;6.53;4.90;;;;;;;;;;5070356;28;20214;-93
2023/05/03 02:33:05;;;;;;;5.60;5.00;;;;;;;;;;5070606;28;20278;-92
2023/05/03 02:35:32;;;;;;;6.27;5.20;;;;;;;;;;5072800;28;20203;-93
2023/05/03 02:37:59;;;;;;;6.07;5.07;;;;;;;;;;5072449;28;20238;-93
2023/05/03 02:40:27;;;;;;;5.20;4.40;;;;;;;;;;5065999;28;20206;-93
2023/05/03 02:42:54;;;;;;;7.33;4.80;;;;;;;;;;5068242;28;20203;-93
2023/05/03 02:45:21;;;;;;;5.70;5.10;;;;;;;;;;5059327;28;20203;-93
2023/05/03 02:47:48;;;;;;;4.90;4.50;;;;;;;;;;5072901;28;20290;-93
2023/05/03 02:50:17;;;;;;;5.23;4.73;;;;;;;;;;5064317;28;20210;-93
2023/05/03 02:52:45;;;;;;;6.70;4.60;;;;;;;;;;5064352;28;20199;-93
2023/05/03 02:55:12;;;;;;;5.70;4.57;;;;;;;;;;5066329;28;20199;-93
2023/05/03 02:57:39;;;;;;;5.83;4.53;;;;;;;;;;5066042;28;20253;-93
2023/05/03 03:00:08;;;;;;;4.83;4.20;;;;;;;;;;5069196;28;20230;-93
2023/05/03 03:02:36;;;;;;;5.70;4.60;;;;;;;;;;5068196;28;20203;-93
2023/05/03 03:05:03;;;;;;;5.33;4.70;;;;;;;;;;5069547;28;20209;-93
2023/05/03 03:07:32;;;;;;;5.13;4.10;;;;;;;;;;5061660;28;20213;-93
2023/05/03 03:09:59;;;;;;;5.43;4.83;;;;;;;;;;5071120;28;20195;-93
2023/05/03 03:12:27;;;;;;;8.00;4.73;;;;;;;;;;5064578;28;20199;-93
2023/05/03 03:14:56;;;;;;;6.40;5.00;;;;;;;;;;5066187;28;20226;-93
2023/05/03 03:17:23;;;;;;;5.73;4.80;;;;;;;;;;5065093;28;20211;-93
2023/05/03 03:19:50;;;;;;;6.23;4.60;;;;;;;;;;5067903;28;20222;-93
2023/05/03 03:22:17;;;;;;;6.60;4.83;;;;;;;;;;5058997;28;20195;-92
2023/05/03 03:24:46;;;;;;;5.47;4.50;;;;;;;;;;5071191;28;20214;-93
2023/05/03 03:27:13;;;;;;;6.50;4.27;;;;;;;;;;5063173;28;20253;-93
2023/05/03 03:29:41;;;;;;;6.00;4.83;;;;;;;;;;5062585;28;20199;-93
2023/05/03 03:32:08;;;;;;;5.63;4.90;;;;;;;;;;5063600;28;20202;-93
2023/05/03 03:34:35;;;;;;;7.20;5.00;;;;;;;;;;5068534;28;20278;-93
2023/05/03 03:37:03;;;;;;;5.53;4.73;;;;;;;;;;5064151;28;20207;-93
2023/05/03 03:39:30;;;;;;;5.20;4.53;;;;;;;;;;5069540;28;20272;-92
2023/05/03 03:41:59;;;;;;;5.60;5.00;;;;;;;;;;5059896;28;20295;-93
2023/05/03 03:44:26;;;;;;;5.60;4.80;;;;;;;;;;5062414;28;20222;-93
2023/05/03 03:46:53;;;;;;;5.80;5.07;;;;;;;;;;5067187;28;20203;-93
2023/05/03 03:49:20;;;;;;;6.27;4.87;;;;;;;;;;5066029;28;20282;-93
2023/05/03 03:51:47;;;;;;;5.63;4.50;;;;;;;;;;5061363;28;20270;-92
2023/05/03 03:54:15;;;;;;;5.03;4.50;;;;;;;;;;5064993;28;20285;-91
2023/05/03 03:56:42;;;;;;;6.03;4.70;;;;;;;;;;5061619;28;20212;-93
2023/05/03 03:59:11;;;;;;;7.10;5.50;;;;;;;;;;5068428;28;20235;-93
2023/05/03 04:01:38;;;;;;;5.93;4.40;;;;;;;;;;5062501;28;20210;-93
2023/05/03 04:04:06;;;;;;;5.77;4.47;;;;;;;;;;5062269;28;20253;-93
2023/05/03 04:06:35;;;;;;;7.80;4.50;;;;;;;;;;5070964;28;20203;-93
2023/05/03 04:09:02;;;;;;;7.00;4.80;;;;;;;;;;5067078;28;20199;-93
2023/05/03 04:11:30;;;;;;;5.73;4.70;;;;;;;;;;5070540;28;20267;-92
2023/05/03 04:13:57;;;;;;;5.23;4.73;;;;;;;;;;5060177;28;20207;-93
2023/05/03 04:16:26;;;;;;;8.30;4.60;;;;;;;;;;5070342;28;20195;-94
2023/05/03 04:18:53;;;;;;;6.60;4.90;;;;;;;;;;5070030;28;20313;-93
2023/05/03 04:21:20;;;;;;;6.53;5.10;;;;;;;;;;5070612;28;20216;-93
2023/05/03 04:23:47;;;;;;;5.87;4.70;;;;;;;;;;5069672;28;20233;-93
2023/05/03 04:26:16;;;;;;;6.87;4.50;;;;;;;;;;5067634;28;20291;-93
2023/05/03 04:28:44;;;;;;;5.47;4.60;;;;;;;;;;5060782;28;20207;-92
2023/05/03 04:31:13;;;;;;;8.90;5.57;;;;;;;;;;5068970;28;20207;-93
2023/05/03 04:33:42;;;;;;;6.27;5.10;;;;;;;;;;5066194;28;20266;-92
2023/05/03 04:36:14;;;;;;;5.90;5.30;;;;;;;;;;5067634;28;20214;-92
2023/05/03 04:38:42;;;;;;;6.73;4.80;;;;;;;;;;5065580;28;20314;-93
2023/05/03 04:41:10;;;;;;;8.17;5.60;;;;;;;;;;5066645;28;20226;-93
2023/05/03 04:43:38;;;;;;;6.77;4.80;;;;;;;;;;5066000;28;20245;-93
2023/05/03 04:46:05;;;;;;;6.63;5.07;;;;;;;;;;5071336;28;20214;-93
2023/05/03 04:48:33;;;;;;;8.17;5.37;;;;;;;;;;5064831;28;20227;-94
2023/05/03 04:51:01;;;;;;;6.80;5.33;;;;;;;;;;5067276;28;20195;-95
2023/05/03 04:53:31;;;;;;;9.53;5.20;;;;;;;;;;5068809;28;20268;-95
2023/05/03 04:55:58;;;;;;;7.97;5.40;;;;;;;;;;5061978;28;20202;-94
2023/05/03 04:58:25;;;;;;;10.00;5.63;;;;;;;;;;5072508;28;20241;-95
2023/05/03 05:00:54;;;;;;;6.50;5.47;;;;;;;;;;5068614;28;20214;-94
2023/05/03 05:03:22;;;;;;;8.67;5.60;;;;;;;;;;5065819;28;20289;-95
2023/05/03 05:05:57;;;;;;;5.97;5.10;;;;;;;;;;5058316;28;20253;-95
2023/05/03 05:08:26;;;;;;;6.13;4.80;;;;;;;;;;5064805;28;20289;-95
2023/05/03 05:10:57;;;;;;;8.67;5.10;;;;;;;;;;5071289;28;20199;-95
2023/05/03 05:13:26;;;;;;;6.67;4.87;;;;;;;;;;5068483;28;20494;-96
2023/05/03 05:15:56;;;;;;;6.57;5.10;;;;;;;;;;5067827;28;20232;-94
2023/05/03 05:18:26;;;;;;;5.37;4.87;;;;;;;;;;5068996;28;20195;-96
2023/05/03 05:21:08;;;;;;;8.47;5.40;;;;;;;;;;5071233;28;20216;-95
2023/05/03 05:23:37;;;;;;;8.27;4.90;;;;;;;;;;5067612;28;20203;-95
2023/05/03 05:26:07;;;;;;;6.80;4.90;;;;;;;;;;5061442;28;20321;-94
2023/05/03 05:28:35;;;;;;;7.70;5.47;;;;;;;;;;5062917;28;20215;-94
2023/05/03 05:31:02;;;;;;;7.13;5.00;;;;;;;;;;5065241;28;20226;-94
2023/05/03 05:33:30;;;;;;;6.30;4.80;;;;;;;;;;5067691;28;20301;-94
2023/05/03 05:35:59;;;;;;;8.03;4.70;;;;;;;;;;5073975;28;20203;-93
2023/05/03 05:38:27;;;;;;;7.33;4.90;;;;;;;;;;5069976;28;20209;-94
2023/05/03 05:40:56;;;;;;;7.20;4.97;;;;;;;;;;5065941;28;20230;-93
2023/05/03 05:43:24;;;;;;;8.13;5.73;;;;;;;;;;5068523;28;20206;-94
2023/05/03 05:45:51;;;;;;;5.87;4.67;;;;;;;;;;5071614;28;20284;-94
2023/05/03 05:48:20;;;;;;;7.60;4.97;;;;;;;;;;5070561;28;20215;-93
2023/05/03 05:50:49;;;;;;;8.30;4.93;;;;;;;;;;5072064;28;20256;-93
2023/05/03 05:53:16;;;;;;;8.70;4.93;;;;;;;;;;5056062;28;20214;-94
2023/05/03 05:55:44;;;;;;;6.97;5.23;;;;;;;;;;5057886;28;20298;-94
2023/05/03 05:58:13;;;;;;;6.40;5.27;;;;;;;;;;5068641;28;20241;-94
2023/05/03 06:00:40;;;;;;;7.70;5.10;;;;;;;;;;5071018;28;20234;-94
2023/05/03 06:03:08;;;;;;;8.43;5.10;;;;;;;;;;5071592;28;20237;-94
2023/05/03 06:05:35;;;;;;;7.10;4.60;;;;;;;;;;5073187;28;20206;-94
2023/05/03 06:08:03;;;;;;;6.97;4.57;;;;;;;;;;5069047;28;20270;-93
2023/05/03 06:10:32;;;;;;;5.03;4.40;;;;;;;;;;5064967;28;20206;-93
2023/05/03 06:13:04;;;;;;;7.03;5.00;;;;;;;;;;5046937;28;20318;-94
2023/05/03 06:18:20;;;;;;;7.40;4.70;;;;;;;;;;5066417;28;20290;-94
2023/05/03 06:20:53;;;;;;;10.47;4.87;;;;;;;;;;5067758;28;20254;-92
2023/05/03 06:23:26;;;;;;;6.93;4.93;;;;;;;;;;5065936;28;20401;-94
2023/05/03 06:25:54;;;;;;;6.23;4.53;;;;;;;;;;5066230;28;20202;-95
2023/05/03 06:28:22;;;;;;;6.63;5.20;;;;;;;;;;5069726;28;20206;-94
2023/05/03 06:31:07;;;;;;;7.13;4.70;;;;;;;;;;5061695;28;20277;-94
2023/05/03 06:33:46;;;;;;;6.40;4.27;;;;;;;;;;5065863;28;20206;-94
2023/05/03 06:36:14;;;;;;;5.00;4.33;;;;;;;;;;5067778;28;20203;-92
2023/05/03 06:38:50;;;;;;;6.90;4.50;;;;;;;;;;5072893;28;20214;-93
2023/05/03 06:41:29;;;;;;;7.53;4.37;;;;;;;;;;5061997;28;20206;-95
2023/05/03 06:44:09;;;;;;;4.93;4.40;;;;;;;;;;5068197;28;20206;-95
2023/05/03 06:47:19;;;;;;;;;;;;;;;;;;;;;
2023/05/03 06:49:54;;;;;;;6.23;4.53;;;;;;;;;;5058703;28;20209;-94
2023/05/03 06:52:31;;;;;;;6.93;4.63;;;;;;;;;;5067768;28;20198;-93
2023/05/03 06:55:01;;;;;;;6.27;4.80;;;;;;;;;;5065046;28;20229;-93
2023/05/03 06:57:46;;;;;;;8.43;4.50;;;;;;;;;;5064446;28;20207;-94
2023/05/03 07:00:22;;;;;;;8.63;4.47;;;;;;;;;;5066521;28;20318;-93
2023/05/03 07:03:33;;;;;;;5.83;4.50;;;;;;;;;;5070346;28;20206;-93
2023/05/03 07:06:14;;;;;;;8.43;4.90;;;;;;;;;;5063328;28;20226;-94
2023/05/03 07:08:43;;;;;;;8.30;4.90;;;;;;;;;;5070330;28;20258;-94
2023/05/03 07:11:22;;;;;;;9.37;4.90;;;;;;;;;;5063906;28;20237;-95
2023/05/03 07:13:55;;;;;;;5.17;4.10;;;;;;;;;;5070739;28;20207;-95
2023/05/03 07:16:27;;;;;;;5.73;4.23;;;;;;;;;;5073524;28;20210;-96
2023/05/03 07:19:03;;;;;;;7.27;4.43;;;;;;;;;;5072097;28;20215;-95
2023/05/03 07:21:32;;;;;;;8.17;4.70;;;;;;;;;;5061544;28;20211;-95
2023/05/03 07:24:02;;;;;;;6.73;4.27;;;;;;;;;;5063437;28;20248;-95
2023/05/03 07:26:39;;;;;;;8.00;4.03;;;;;;;;;;5064164;28;20215;-95
2023/05/03 07:29:13;;;;;;;8.23;4.50;;;;;;;;;;5072966;28;20214;-95
2023/05/03 07:31:45;;;;;;;6.23;4.03;;;;;;;;;;5071143;28;20202;-95
2023/05/03 07:34:15;;;;;;;8.73;4.10;;;;;;;;;;5061054;28;20200;-96
2023/05/03 07:36:52;;;;;;;5.90;4.70;;;;;;;;;;5048826;28;20215;-95
2023/05/03 07:42:34;;;;;;;6.78;3.88;;;;;;;;;;4914206;29;20212;-94
2023/05/03 07:45:20;;;;;;;6.53;3.83;;;;;;;;;;4919273;29;20211;-95
2023/05/03 07:47:52;;;;;;;6.10;3.72;;;;;;;;;;5054572;28;20226;-94
2023/05/03 07:50:26;;;;;;;6.47;3.92;;;;;;;;;;5071573;28;20218;-93
2023/05/03 07:53:02;;;;;;;7.40;4.47;;;;;;;;;;5061720;28;20216;-94
2023/05/03 07:55:35;;;;;;;7.55;3.95;;;;;;;;;;5065621;28;20206;-95
2023/05/03 07:58:41;;;;;;;6.65;4.43;;;;;;;;;;5067635;28;20206;-96
2023/05/03 08:01:19;;;;;;;7.65;4.10;;;;;;;;;;5056738;28;20238;-96
2023/05/03 08:04:02;;;;;;;5.57;3.90;;;;;;;;;;5064217;28;20199;-96
2023/05/03 08:06:35;;;;;;;5.15;4.32;;;;;;;;;;5066524;28;20303;-94
2023/05/03 08:09:10;;;;;;;8.27;3.60;;;;;;;;;;5070647;28;20279;-95
2023/05/03 08:11:57;;;;;;;8.20;3.70;;;;;;;;;;5045821;28;20202;-95
2023/05/03 08:14:26;;;;;;;7.07;4.28;;;;;;;;;;5062227;28;20199;-95
2023/05/03 08:16:54;;;;;;;8.30;4.57;;;;;;;;;;5078208;28;20195;-95
2023/05/03 08:19:25;;;;;;;6.47;4.35;;;;;;;;;;5067533;28;20214;-95
2023/05/03 08:22:01;;;;;;;6.18;4.80;;;;;;;;;;5068886;28;20244;-94
2023/05/03 08:27:18;;;;;;;5.90;4.47;;;;;;;;;;5061116;28;20199;-94
2023/05/03 08:29:46;;;;;;;8.57;4.85;;;;;;;;;;5064320;28;20208;-94
2023/05/03 08:32:13;;;;;;;5.07;4.10;;;;;;;;;;5064453;28;20252;-94
2023/05/03 08:34:41;;;;;;;5.25;4.05;;;;;;;;;;5069254;28;20205;-93
2023/05/03 08:37:12;;;;;;;7.65;4.10;;;;;;;;;;5078523;28;20217;-93
2023/05/03 08:39:43;;;;;;;5.45;3.85;;;;;;;;;;5082962;28;20222;-94
2023/05/03 08:42:10;;;;;;;5.72;3.67;;;;;;;;;;5086471;28;20212;-94
2023/05/03 08:44:41;;;;;;;6.65;4.05;;;;;;;;;;5086293;28;20198;-94
2023/05/03 08:47:12;;;;;;;5.88;4.15;;;;;;;;;;5085558;28;20206;-94
2023/05/03 08:49:40;;;;;;;6.57;4.55;;;;;;;;;;5087313;28;20206;-94
2023/05/03 08:52:10;;;;;;;6.55;3.78;;;;;;;;;;5088433;28;20221;-94
2023/05/03 08:54:41;;;;;;;7.18;4.30;;;;;;;;;;5086693;28;20254;-94
2023/05/03 08:57:14;;;;;;;5.97;3.75;;;;;;;;;;5084268;28;20213;-94
2023/05/03 08:59:52;;;;;;;3.92;3.53;;;;;;;;;;5090869;28;20235;-94
2023/05/03 09:02:20;;;;;;;7.43;4.10;;;;;;;;;;5084064;28;20207;-93
2023/05/03 09:04:47;;;;;;;7.30;4.32;;;;;;;;;;5081676;28;20217;-94
2023/05/03 09:07:28;;;;;;;7.10;3.58;;;;;;;;;;5084025;28;20297;-94
2023/05/03 09:09:57;;;;;;;6.57;3.75;;;;;;;;;;5088061;28;20206;-94
2023/05/03 09:12:36;;;;;;;8.63;3.97;;;;;;;;;;5086670;28;20280;-94
2023/05/03 09:15:05;;;;;;;5.50;4.07;;;;;;;;;;5088959;28;20202;-94
2023/05/03 09:17:32;;;;;;;6.57;4.03;;;;;;;;;;5085284;28;20256;-94
2023/05/03 09:20:01;;;;;;;4.40;3.92;;;;;;;;;;5083879;28;20228;-95
2023/05/03 09:22:29;;;;;;;5.43;4.15;;;;;;;;;;5089831;28;20198;-95
2023/05/03 09:24:57;;;;;;;5.75;3.85;;;;;;;;;;5082422;28;20229;-94
2023/05/03 09:27:25;;;;;;;5.22;3.78;;;;;;;;;;5082236;28;20202;-93
2023/05/03 09:29:54;;;;;;;8.77;4.18;;;;;;;;;;5077731;28;20198;-95
2023/05/03 09:32:23;;;;;;;4.97;3.40;;;;;;;;;;5082892;28;20256;-94
2023/05/03 09:34:50;;;;;;;7.43;3.92;;;;;;;;;;5086576;28;20213;-94
2023/05/03 09:37:17;;;;;;;4.82;3.72;;;;;;;;;;5086591;28;20210;-95
2023/05/03 09:39:46;;;;;;;4.82;3.25;;;;;;;;;;5089849;28;20308;-94
2023/05/03 09:42:15;;;;;;;5.18;3.97;;;;;;;;;;5084452;28;20234;-94
2023/05/03 09:44:47;;;;;;;4.72;3.90;;;;;;;;;;5081942;28;20207;-94
2023/05/03 09:47:17;;;;;;;6.25;3.38;;;;;;;;;;5081594;28;20209;-94
2023/05/03 09:49:45;;;;;;;3.55;3.13;;;;;;;;;;5089479;28;20202;-95
2023/05/03 09:52:12;;;;;;;4.32;3.00;;;;;;;;;;5081786;28;20282;-95
2023/05/03 09:54:41;;;;;;;4.68;3.28;;;;;;;;;;5089246;28;20210;-94
2023/05/03 09:57:09;;;;;;;6.07;3.88;;;;;;;;;;5088770;28;20206;-95
2023/05/03 09:59:37;;;;;;;5.28;3.60;;;;;;;;;;5095066;28;20238;-94
2023/05/03 10:02:06;;;;;;;6.07;3.70;;;;;;;;;;5092108;28;20226;-95
2023/05/03 10:04:37;;;;;;;4.03;3.28;;;;;;;;;;5087436;28;20263;-94
2023/05/03 10:07:08;;;;;;;3.40;3.05;;;;;;;;;;5081178;28;20297;-94
2023/05/03 10:09:38;;;;;;;4.85;3.17;;;;;;;;;;5091009;28;20293;-94
2023/05/03 10:12:08;;;;;;;3.92;3.22;;;;;;;;;;5086914;28;20198;-94
2023/05/03 10:14:35;;;;;;;5.72;3.47;;;;;;;;;;5089025;28;20209;-94
2023/05/03 10:17:05;;;;;;;5.15;3.30;;;;;;;;;;5084163;28;20206;-94
2023/05/03 10:19:35;;;;;;;7.90;3.50;;;;;;;;;;5085029;28;20210;-94
2023/05/03 10:22:05;;;;;;;4.35;2.97;;;;;;;;;;5087172;28;20214;-94
2023/05/03 10:24:34;;;;;;;6.63;3.47;;;;;;;;;;5083270;28;20210;-95
2023/05/03 10:27:01;;;;;;;6.97;3.22;;;;;;;;;;5081494;28;20268;-94
2023/05/03 10:29:48;;;;;;;5.97;4.10;;;;;;;;;;5088456;28;20225;-94
2023/05/03 10:32:29;;;;;;;6.28;3.85;;;;;;;;;;5083328;28;20206;-94
2023/05/03 10:34:57;;;;;;;3.28;2.80;;;;;;;;;;5081157;28;20205;-94
2023/05/03 10:37:28;;;;;;;6.65;3.15;;;;;;;;;;5083565;28;20194;-94
2023/05/03 10:39:55;;;;;;;6.07;3.70;;;;;;;;;;5090670;28;20221;-94
2023/05/03 10:42:23;;;;;;;4.28;2.90;;;;;;;;;;5083396;28;20242;-94
2023/05/03 10:44:54;;;;;;;4.40;2.60;;;;;;;;;;5081705;28;20210;-94
2023/05/03 10:47:23;;;;;;;3.38;2.55;;;;;;;;;;5080659;28;20203;-94
2023/05/03 10:50:07;;;;;;;3.75;2.20;;;;;;;;;;5088225;28;20206;-94
2023/05/03 10:52:56;;;;;;;4.65;2.50;;;;;;;;;;5080715;28;20209;-94
2023/05/03 10:55:25;;;;;;;4.18;2.35;;;;;;;;;;5075220;28;20202;-94
2023/05/03 10:57:54;;;;;;;4.80;2.42;;;;;;;;;;5092389;28;20202;-94
2023/05/03 11:00:25;;;;;;;4.57;2.88;;;;;;;;;;5090771;28;20317;-94
2023/05/03 11:03:14;;;;;;;3.38;2.50;;;;;;;;;;5080145;28;20265;-94
2023/05/03 11:05:41;;;;;;;7.07;3.30;;;;;;;;;;5093062;28;20206;-93
2023/05/03 11:08:09;;;;;;;5.68;2.65;;;;;;;;;;5082732;28;20202;-93
2023/05/03 11:10:38;;;;;;;4.15;2.63;;;;;;;;;;5090898;28;20210;-93
2023/05/03 11:13:06;;;;;;;3.25;2.92;;;;;;;;;;5080358;28;20212;-93
2023/05/03 11:15:33;;;;;;;4.93;3.00;;;;;;;;;;5092598;28;20202;-93
2023/05/03 11:18:00;;;;;;;4.72;3.00;;;;;;;;;;5083634;28;20240;-92
2023/05/03 11:20:28;;;;;;;3.58;2.72;;;;;;;;;;5086291;28;20278;-93
2023/05/03 11:22:55;;;;;;;5.82;2.88;;;;;;;;;;5085294;28;20302;-93
2023/05/03 11:25:22;;;;;;;4.03;2.90;;;;;;;;;;5084547;28;20289;-93
2023/05/03 11:27:51;;;;;;;4.45;2.65;;;;;;;;;;5089159;28;20234;-93
2023/05/03 11:30:19;;;;;;;4.65;2.67;;;;;;;;;;5084240;28;20202;-93
2023/05/03 11:32:46;;;;;;;3.58;2.88;;;;;;;;;;5087985;28;20218;-93
2023/05/03 11:35:14;;;;;;;3.50;2.47;;;;;;;;;;5087221;28;20210;-93
2023/05/03 11:37:43;;;;;;;5.80;2.30;;;;;;;;;;5090966;28;20300;-93
2023/05/03 11:40:16;;;;;;;4.13;2.40;;;;;;;;;;5083701;28;20226;-93
2023/05/03 11:42:53;;;;;;;3.50;2.20;;;;;;;;;;5086917;28;20260;-93
2023/05/03 11:45:21;;;;;;;4.30;2.38;;;;;;;;;;5081025;28;20210;-93
2023/05/03 11:47:48;;;;;;;3.85;2.65;;;;;;;;;;5083486;28;20276;-93
2023/05/03 11:50:15;;;;;;;4.10;2.40;;;;;;;;;;5081181;28;20294;-93
2023/05/03 11:52:43;;;;;;;4.75;2.42;;;;;;;;;;5087326;28;20282;-93
2023/05/03 11:55:10;;;;;;;3.10;2.10;;;;;;;;;;5089736;28;20203;-94
2023/05/03 11:57:38;;;;;;;3.10;2.22;;;;;;;;;;5089746;28;20210;-94
2023/05/03 12:00:30;;;;;;;3.85;2.30;;;;;;;;;;5092815;28;20241;-94
2023/05/03 12:03:00;;;;;;;4.43;2.40;;;;;;;;;;5093386;28;20275;-93
2023/05/03 12:05:29;;;;;;;3.65;2.20;;;;;;;;;;5088720;28;20230;-94
2023/05/03 12:07:56;;;;;;;2.92;1.80;;;;;;;;;;5092846;28;20206;-94
2023/05/03 12:10:25;;;;;;;2.63;1.90;;;;;;;;;;5084958;28;20263;-93
2023/05/03 12:12:56;;;;;;;2.80;2.00;;;;;;;;;;5090062;28;20233;-94
2023/05/03 12:15:30;;;;;;;3.90;2.30;;;;;;;;;;5083506;28;20275;-93
2023/05/03 12:17:58;;;;;;;8.18;2.35;;;;;;;;;;5085501;28;20221;-94
2023/05/03 12:20:30;;;;;;;4.72;2.15;;;;;;;;;;5085506;28;20254;-93
2023/05/03 12:23:01;;;;;;;2.67;1.90;;;;;;;;;;5088577;28;20198;-94
2023/05/03 12:25:28;;;;;;;3.55;1.73;;;;;;;;;;5084716;28;20263;-94
2023/05/03 12:27:57;;;;;;;3.60;2.00;;;;;;;;;;5089710;28;20297;-94
2023/05/03 12:30:25;;;;;;;3.97;2.20;;;;;;;;;;5089895;28;20202;-93
2023/05/03 12:32:52;;;;;;;4.68;2.20;;;;;;;;;;5079552;28;20194;-93
2023/05/03 12:35:20;;;;;;;2.83;1.90;;;;;;;;;;5086588;28;20212;-93
2023/05/03 12:37:49;;;;;;;2.95;1.98;;;;;;;;;;5084836;28;20206;-94
2023/05/03 12:40:17;;;;;;;3.80;1.95;;;;;;;;;;5077810;28;20293;-95
2023/05/03 12:42:44;;;;;;;3.72;2.10;;;;;;;;;;5081412;28;20225;-94
2023/05/03 12:45:12;;;;;;;3.28;2.00;;;;;;;;;;5083394;28;20203;-94
2023/05/03 12:47:41;;;;;;;4.15;2.22;;;;;;;;;;5080546;28;20206;-94
2023/05/03 12:50:09;;;;;;;2.85;2.05;;;;;;;;;;5089818;28;20202;-94
2023/05/03 12:52:37;;;;;;;3.33;1.98;;;;;;;;;;5086252;28;20202;-94
2023/05/03 12:55:06;;;;;;;3.95;1.83;;;;;;;;;;5083013;28;20289;-94
2023/05/03 12:57:34;;;;;;;4.90;2.40;;;;;;;;;;5083904;28;20229;-94
2023/05/03 13:00:01;;;;;;;2.80;1.73;;;;;;;;;;5092313;28;20229;-94
2023/05/03 13:02:29;;;;;;;2.00;1.63;;;;;;;;;;5080728;28;20225;-94
2023/05/03 13:04:56;;;;;;;3.03;1.80;;;;;;;;;;5093098;28;20295;-94
2023/05/03 13:07:26;;;;;;;2.85;1.83;;;;;;;;;;5089291;28;20244;-94
2023/05/03 13:09:54;;;;;;;3.20;2.00;;;;;;;;;;5077923;28;20213;-94
2023/05/03 13:12:24;;;;;;;3.72;2.15;;;;;;;;;;5085698;28;20259;-94
2023/05/03 13:14:52;;;;;;;2.90;1.90;;;;;;;;;;5085404;28;20229;-94
2023/05/03 13:17:21;;;;;;;4.22;2.33;;;;;;;;;;5088702;28;20250;-94
2023/05/03 13:19:48;;;;;;;4.68;2.05;;;;;;;;;;5080578;28;20203;-94
2023/05/03 13:22:16;;;;;;;3.63;2.30;;;;;;;;;;5084739;28;20235;-94
2023/05/03 13:24:44;;;;;;;3.92;2.20;;;;;;;;;;5088686;28;20225;-94
2023/05/03 13:27:12;;;;;;;3.03;2.13;;;;;;;;;;5088587;28;20207;-94
2023/05/03 13:29:40;;;;;;;3.97;2.45;;;;;;;;;;5083497;28;20202;-93
2023/05/03 13:32:21;;;;;;;2.63;1.90;;;;;;;;;;5094910;28;20222;-93
2023/05/03 13:34:48;;;;;;;4.25;2.03;;;;;;;;;;5089871;28;20207;-94
2023/05/03 13:37:17;;;;;;;3.30;1.85;;;;;;;;;;5088725;28;20206;-94
2023/05/03 13:39:45;;;;;;;3.60;1.98;;;;;;;;;;5089212;28;20213;-93
2023/05/03 13:42:12;;;;;;;4.15;1.73;;;;;;;;;;5090199;28;20263;-94
2023/05/03 13:44:41;;;;;;;4.00;1.90;;;;;;;;;;5085625;28;20322;-94
2023/05/03 13:47:08;;;;;;;1.90;1.70;;;;;;;;;;5084377;28;20218;-94
2023/05/03 13:49:35;;;;;;;3.75;2.10;;;;;;;;;;5084777;28;20261;-94
2023/05/03 13:52:02;;;;;;;5.38;2.20;;;;;;;;;;5085515;28;20226;-95
2023/05/03 13:54:30;;;;;;;4.18;2.30;;;;;;;;;;5096108;28;20218;-94
2023/05/03 13:56:58;;;;;;;3.97;2.30;;;;;;;;;;5091293;28;20210;-94
2023/05/03 13:59:25;;;;;;;2.55;2.00;;;;;;;;;;5081136;28;20321;-94
2023/05/03 14:01:54;;;;;;;3.13;1.90;;;;;;;;;;5090062;28;20206;-94
2023/05/03 14:04:23;;;;;;;2.45;2.03;;;;;;;;;;5077825;28;20218;-94
2023/05/03 14:06:50;;;;;;;2.25;1.70;;;;;;;;;;5088458;28;20210;-94
2023/05/03 14:09:17;;;;;;;4.55;2.28;;;;;;;;;;5090600;28;20202;-93
2023/05/03 14:11:45;;;;;;;5.68;2.63;;;;;;;;;;5089038;28;20218;-94
2023/05/03 14:14:12;;;;;;;3.95;2.47;;;;;;;;;;5082414;28;20297;-93
2023/05/03 14:16:40;;;;;;;2.38;1.90;;;;;;;;;;5092107;28;20289;-94
2023/05/03 14:19:09;;;;;;;4.03;2.28;;;;;;;;;;5080346;28;20214;-93
2023/05/03 14:21:37;;;;;;;3.58;2.50;;;;;;;;;;5080915;28;20219;-93
2023/05/03 14:24:05;;;;;;;3.85;2.20;;;;;;;;;;5084201;28;20214;-93
2023/05/03 14:26:33;;;;;;;3.05;2.05;;;;;;;;;;5085044;28;20214;-93
2023/05/03 14:29:00;;;;;;;3.75;2.25;;;;;;;;;;5094755;28;20225;-94
2023/05/03 14:31:28;;;;;;;3.53;2.00;;;;;;;;;;5091358;28;20203;-94
2023/05/03 14:33:55;;;;;;;3.35;2.05;;;;;;;;;;5091183;28;20214;-93
2023/05/03 14:36:24;;;;;;;3.95;2.00;;;;;;;;;;5090106;28;20216;-94
2023/05/03 14:38:51;;;;;;;3.25;2.10;;;;;;;;;;5077970;28;20218;-93
2023/05/03 14:41:18;;;;;;;2.90;1.95;;;;;;;;;;5075699;28;20210;-93
2023/05/03 14:43:46;;;;;;;2.92;2.00;;;;;;;;;;5086087;28;20217;-94
2023/05/03 14:46:13;;;;;;;3.28;1.90;;;;;;;;;;5091446;28;20221;-93
2023/05/03 14:48:40;;;;;;;4.20;2.17;;;;;;;;;;5089546;28;20194;-93
2023/05/03 14:51:07;;;;;;;5.60;2.20;;;;;;;;;;5085095;28;20224;-93
2023/05/03 14:53:36;;;;;;;3.90;2.15;;;;;;;;;;5084862;28;20230;-94
2023/05/03 14:56:03;;;;;;;5.35;2.30;;;;;;;;;;5085058;28;20240;-93
2023/05/03 14:58:31;;;;;;;16.65;2.40;;;;;;;;;;5089442;28;20214;-93
2023/05/03 15:00:59;;;;;;;4.47;2.00;;;;;;;;;;5085858;28;20235;-93
2023/05/03 15:03:26;;;;;;;2.72;1.80;;;;;;;;;;5083632;28;20194;-93
2023/05/03 15:05:53;;;;;;;3.00;1.75;;;;;;;;;;5085404;28;20210;-94
2023/05/03 15:08:21;;;;;;;3.83;1.80;;;;;;;;;;5081337;28;20289;-93